Time;durP1;ratioP1;P1;durP2;ratioP2;P2;SDS_P1;SDS_P2;PMS_P1;PMS_P2;Temp;Humidity;BMP_temperature;BMP_pressure;BME280_temperature;BME280_humidity;BME280_pressure;Samples;Min_cycle;Max_cycle;Signal;HPM_P1;HPM_P2
2022/11/18 00:01:29;;;;;;;20.50;16.20;;;;;;;0.29;100.00;95258.17;105185;1303;24214;-77
2022/11/18 00:04:01;;;;;;;19.10;15.50;;;;;;;0.29;100.00;95260.59;105219;1304;22455;-77
2022/11/18 00:06:33;;;;;;;19.50;15.40;;;;;;;0.31;100.00;95265.02;104293;1303;1169122;-77
2022/11/18 00:09:04;;;;;;;21.70;17.50;;;;;;;0.31;100.00;95259.98;105225;1298;22471;-77
2022/11/18 00:14:26;;;;;;;20.70;16.60;;;;;;;0.30;100.00;95257.04;105201;1296;24247;-77
2022/11/18 00:17:00;;;;;;;20.70;15.90;;;;;;;0.30;100.00;95255.48;105149;1303;22656;-77
2022/11/18 00:19:35;;;;;;;19.20;15.70;;;;;;;0.28;100.00;95252.95;105287;1289;26507;-77
2022/11/18 00:22:10;;;;;;;20.50;16.40;;;;;;;0.28;100.00;95252.58;105212;1295;22458;-77
2022/11/18 00:24:44;;;;;;;20.10;16.00;;;;;;;0.28;100.00;95253.83;105229;1298;22527;-77
2022/11/18 00:27:15;;;;;;;20.40;15.60;;;;;;;0.28;100.00;95254.98;105167;1302;22649;-78
2022/11/18 00:29:46;;;;;;;19.40;15.40;;;;;;;0.32;100.00;95259.40;105205;1303;22654;-77
2022/11/18 00:32:19;;;;;;;19.70;15.70;;;;;;;0.32;100.00;95260.19;105218;1303;22468;-77
2022/11/18 00:34:52;;;;;;;18.30;14.30;;;;;;;0.32;100.00;95257.38;105204;1294;22467;-77
2022/11/18 00:37:25;;;;;;;20.30;15.60;;;;;;;0.30;100.00;95249.85;105146;1303;23238;-77
2022/11/18 00:39:57;;;;;;;20.10;15.00;;;;;;;0.28;100.00;95244.13;105195;1303;22492;-77
2022/11/18 00:45:20;;;;;;;19.10;14.90;;;;;;;0.27;100.00;95237.92;105230;1303;22462;-77
2022/11/18 00:47:54;;;;;;;18.40;14.30;;;;;;;0.27;100.00;95234.64;105166;1303;26180;-77
2022/11/18 00:50:25;;;;;;;19.30;14.30;;;;;;;0.28;100.00;95233.31;105216;1295;22466;-77
2022/11/18 00:52:57;;;;;;;19.80;14.90;;;;;;;0.26;100.00;95232.23;105206;1303;23731;-77
2022/11/18 00:55:28;;;;;;;17.70;13.80;;;;;;;0.25;100.00;95230.39;105223;1285;23731;-77
2022/11/18 00:57:59;;;;;;;18.60;14.40;;;;;;;0.24;100.00;95230.60;105185;1294;22679;-77
2022/11/18 01:00:31;;;;;;;21.10;15.20;;;;;;;0.26;100.00;95223.98;105183;1303;22502;-77
2022/11/18 01:03:02;;;;;;;17.20;15.00;;;;;;;0.23;100.00;95224.75;105209;1301;22467;-77
2022/11/18 01:05:33;;;;;;;18.20;13.40;;;;;;;0.22;100.00;95225.68;105185;1295;22463;-77
2022/11/18 01:08:05;;;;;;;18.70;14.10;;;;;;;0.21;100.00;95225.99;105113;1304;24359;-77
2022/11/18 01:10:37;;;;;;;19.10;14.30;;;;;;;0.21;100.00;95224.48;105201;1304;22469;-77
2022/11/18 01:13:24;;;;;;;18.00;14.30;;;;;;;0.23;100.00;95229.91;105156;1306;22487;-77
2022/11/18 01:15:59;;;;;;;17.00;13.80;;;;;;;0.24;100.00;95233.46;105164;1297;23812;-77
2022/11/18 01:18:32;;;;;;;18.40;14.60;;;;;;;0.26;100.00;95230.61;105190;1294;22501;-77
2022/11/18 01:21:05;;;;;;;18.90;15.10;;;;;;;0.29;100.00;95232.12;105226;1297;22589;-77
2022/11/18 01:23:36;;;;;;;18.00;14.60;;;;;;;0.29;100.00;95224.62;105364;1302;22485;-77
2022/11/18 01:26:11;;;;;;;18.10;15.40;;;;;;;0.30;100.00;95224.36;105175;1288;24253;-77
2022/11/18 01:28:43;;;;;;;19.60;15.70;;;;;;;0.31;100.00;95223.48;105176;1294;31710;-77
2022/11/18 01:31:15;;;;;;;18.70;15.00;;;;;;;0.32;100.00;95225.30;105230;1303;22512;-77
2022/11/18 01:33:47;;;;;;;18.40;14.60;;;;;;;0.30;100.00;95222.38;105203;1285;22466;-77
2022/11/18 01:36:21;;;;;;;18.80;15.10;;;;;;;0.29;100.00;95226.71;105159;1303;25482;-77
2022/11/18 01:38:53;;;;;;;18.20;14.40;;;;;;;0.27;100.00;95224.94;105197;1290;22508;-77
2022/11/18 01:41:26;;;;;;;20.10;14.60;;;;;;;0.22;100.00;95226.78;105154;1291;25412;-77
2022/11/18 01:44:00;;;;;;;17.70;14.00;;;;;;;0.18;100.00;95220.86;105201;1275;22486;-77
2022/11/18 01:46:33;;;;;;;18.90;14.70;;;;;;;0.15;100.00;95226.89;105310;1304;22527;-77
2022/11/18 01:49:09;;;;;;;17.70;14.40;;;;;;;0.14;100.00;95227.68;105286;1303;22484;-77
2022/11/18 01:51:48;;;;;;;19.50;14.70;;;;;;;0.11;100.00;95229.02;105303;1296;22476;-77
2022/11/18 01:54:25;;;;;;;19.80;14.60;;;;;;;0.07;100.00;95224.29;105296;1287;22146;-77
2022/11/18 01:57:02;;;;;;;18.70;14.10;;;;;;;0.05;100.00;95229.02;105227;1304;25222;-77
2022/11/18 01:59:37;;;;;;;18.70;14.30;;;;;;;0.07;100.00;95230.95;105168;1304;22484;-77
2022/11/18 02:02:12;;;;;;;18.30;14.80;;;;;;;0.07;100.00;95220.80;105159;1296;22479;-77
2022/11/18 02:04:48;;;;;;;16.40;13.10;;;;;;;0.07;100.00;95215.85;105202;1288;22465;-77
2022/11/18 02:07:19;;;;;;;18.30;13.90;;;;;;;0.07;100.00;95213.98;105152;1281;24379;-77
2022/11/18 02:09:53;;;;;;;16.70;13.90;;;;;;;0.06;100.00;95217.35;105194;1290;24266;-78
2022/11/18 02:12:24;;;;;;;17.10;13.20;;;;;;;0.04;100.00;95213.69;105217;1296;22483;-77
2022/11/18 02:14:55;;;;;;;17.20;13.80;;;;;;;0.04;100.00;95210.71;105200;1305;22490;-77
2022/11/18 02:17:40;;;;;;;16.70;12.90;;;;;;;0.04;100.00;95210.09;105170;1304;22493;-77
2022/11/18 02:20:32;;;;;;;17.70;13.70;;;;;;;0.04;100.00;95201.29;105202;1281;22468;-77
2022/11/18 02:23:32;;;;;;;18.10;13.90;;;;;;;0.01;100.00;95193.95;105237;1297;22473;-77
2022/11/18 02:27:00;;;;;;;15.90;13.40;;;;;;;-0.01;100.00;95198.73;105230;1291;22470;-77
2022/11/18 02:29:37;;;;;;;16.60;13.20;;;;;;;-0.01;100.00;95197.73;104596;1309;22536;-77
2022/11/18 02:32:13;;;;;;;14.50;11.10;;;;;;;-0.01;100.00;95187.10;104808;1309;22587;-77
2022/11/18 02:34:53;;;;;;;14.50;11.60;;;;;;;-0.02;100.00;95178.81;105017;1304;24988;-77
2022/11/18 02:37:31;;;;;;;13.80;11.00;;;;;;;-0.04;100.00;95176.34;105106;1303;22437;-77
2022/11/18 02:40:06;;;;;;;14.00;11.60;;;;;;;-0.06;100.00;95167.21;105147;1306;22553;-77
2022/11/18 02:42:39;;;;;;;14.80;11.50;;;;;;;-0.08;100.00;95166.78;105206;1297;22600;-77
2022/11/18 02:45:14;;;;;;;14.50;10.50;;;;;;;-0.10;100.00;95166.41;105172;1304;22655;-77
2022/11/18 02:47:50;;;;;;;13.10;9.80;;;;;;;-0.10;100.00;95171.72;105163;1304;22672;-77
2022/11/18 02:50:26;;;;;;;14.90;11.70;;;;;;;-0.12;100.00;95176.23;105156;1281;23309;-77
2022/11/18 02:53:01;;;;;;;14.10;11.10;;;;;;;-0.13;100.00;95175.86;105186;1290;22472;-77
2022/11/18 02:55:35;;;;;;;13.20;11.20;;;;;;;-0.14;100.00;95180.73;105227;1288;22617;-77
2022/11/18 02:58:07;;;;;;;14.90;10.70;;;;;;;-0.14;100.00;95183.02;105182;1292;22595;-77
2022/11/18 03:00:39;;;;;;;13.80;10.80;;;;;;;-0.17;100.00;95182.52;105381;1288;24973;-77
2022/11/18 03:03:27;;;;;;;15.10;10.40;;;;;;;-0.19;100.00;95188.92;105204;1303;22481;-77
2022/11/18 03:06:09;;;;;;;11.70;9.10;;;;;;;-0.17;100.00;95189.23;105266;1303;23245;-77
2022/11/18 03:08:47;;;;;;;14.20;10.30;;;;;;;-0.17;100.00;95190.86;105129;1304;36746;-77
2022/11/18 03:11:22;;;;;;;12.70;9.50;;;;;;;-0.16;100.00;95194.98;105226;1290;22499;-77
2022/11/18 03:14:10;;;;;;;12.10;9.80;;;;;;;-0.15;100.00;95190.92;105218;1291;26455;-77
2022/11/18 03:16:49;;;;;;;12.70;9.50;;;;;;;-0.13;100.00;95190.80;105138;1304;25404;-77
2022/11/18 03:19:30;;;;;;;12.20;9.50;;;;;;;-0.10;100.00;95182.55;105208;1304;22658;-77
2022/11/18 03:22:06;;;;;;;;;;;;;;;-0.08;100.00;95179.87;105277;1291;23246;-77
2022/11/18 03:24:43;;;;;;;11.10;8.40;;;;;;;-0.08;100.00;95171.78;105110;1298;22701;-77
2022/11/18 03:27:19;;;;;;;10.20;8.00;;;;;;;-0.08;100.00;95169.28;105198;1303;22572;-77
2022/11/18 03:29:58;;;;;;;11.10;8.80;;;;;;;-0.07;100.00;95171.80;105260;1296;25377;-77
2022/11/18 03:32:31;;;;;;;11.80;9.30;;;;;;;-0.05;100.00;95171.02;105432;1303;25848;-77
2022/11/18 03:35:07;;;;;;;11.40;9.00;;;;;;;-0.03;100.00;95166.52;105259;1303;23787;-77
2022/11/18 03:37:43;;;;;;;12.10;9.00;;;;;;;0.01;100.00;95168.96;105130;1285;23713;-77
2022/11/18 03:40:21;;;;;;;11.30;9.20;;;;;;;0.03;100.00;95168.86;105205;1305;22491;-77
2022/11/18 03:42:58;;;;;;;10.80;9.60;;;;;;;0.04;100.00;95165.13;105141;1304;22456;-77
2022/11/18 03:45:35;;;;;;;10.50;8.30;;;;;;;0.05;100.00;95162.38;105193;1305;23032;-77
2022/11/18 03:48:12;;;;;;;10.90;8.50;;;;;;;0.05;100.00;95161.23;105198;1303;22731;-78
2022/11/18 03:50:47;;;;;;;10.70;8.20;;;;;;;0.02;100.00;95155.82;105215;1303;22500;-77
2022/11/18 03:53:21;;;;;;;10.50;8.50;;;;;;;-0.05;100.00;95154.77;105205;1295;25161;-77
2022/11/18 03:55:57;;;;;;;11.30;8.50;;;;;;;-0.10;100.00;95148.96;105250;1303;22522;-77
2022/11/18 03:58:32;;;;;;;10.80;8.50;;;;;;;-0.14;100.00;95146.40;105185;1289;26404;-78
2022/11/18 04:01:10;;;;;;;12.70;9.50;;;;;;;-0.21;100.00;95145.35;105199;1291;22516;-78
2022/11/18 04:03:42;;;;;;;11.90;9.50;;;;;;;-0.26;100.00;95141.88;105196;1303;22986;-77
2022/11/18 04:06:21;;;;;;;12.40;10.00;;;;;;;-0.27;100.00;95140.66;105176;1278;25954;-77
2022/11/18 04:08:59;;;;;;;11.00;8.70;;;;;;;-0.27;100.00;95138.90;105177;1303;25295;-78
2022/11/18 04:14:33;;;;;;;10.00;8.10;;;;;;;-0.27;100.00;95140.88;105218;1295;23867;-78
2022/11/18 04:17:08;;;;;;;10.20;8.60;;;;;;;-0.29;100.00;95140.12;105169;1303;24237;-77
2022/11/18 04:19:40;;;;;;;9.90;8.30;;;;;;;-0.32;100.00;95138.00;105223;1303;24296;-78
2022/11/18 04:22:12;;;;;;;10.30;7.80;;;;;;;-0.34;100.00;95135.54;105196;1303;22500;-78
2022/11/18 04:24:43;;;;;;;9.10;7.50;;;;;;;-0.38;100.00;95129.98;105230;1303;22491;-78
2022/11/18 04:27:15;;;;;;;8.70;7.10;;;;;;;-0.41;100.00;95131.11;105130;1295;22485;-78
2022/11/18 04:29:47;;;;;;;10.20;8.00;;;;;;;-0.39;100.00;95131.23;105209;1284;25245;-77
2022/11/18 04:32:20;;;;;;;10.60;7.70;;;;;;;-0.41;100.00;95126.05;105232;1288;22486;-78
2022/11/18 04:34:52;;;;;;;9.40;7.00;;;;;;;-0.43;100.00;95128.42;105220;1303;22469;-78
2022/11/18 04:37:23;;;;;;;10.30;7.60;;;;;;;-0.44;100.00;95134.86;105134;1305;26945;-78
2022/11/18 04:39:54;;;;;;;9.20;6.60;;;;;;;-0.46;100.00;95134.01;105160;1298;22468;-78
2022/11/18 04:42:26;;;;;;;9.60;7.10;;;;;;;-0.49;100.00;95134.08;105208;1275;22479;-78
2022/11/18 04:44:57;;;;;;;8.50;7.00;;;;;;;-0.48;100.00;95130.25;105231;1297;24222;-78
2022/11/18 04:47:29;;;;;;;9.50;7.40;;;;;;;-0.46;100.00;95131.50;105120;1306;24236;-78
2022/11/18 04:50:00;;;;;;;8.40;6.90;;;;;;;-0.46;100.00;95135.52;105223;1298;22468;-77
2022/11/18 04:52:32;;;;;;;9.40;7.20;;;;;;;-0.47;100.00;95141.34;105173;1306;22470;-78
2022/11/18 04:55:03;;;;;;;11.60;7.40;;;;;;;-0.47;100.00;95149.20;105210;1304;22725;-78
2022/11/18 04:57:34;;;;;;;10.00;6.90;;;;;;;-0.47;100.00;95148.00;105290;1303;24097;-77
2022/11/18 05:00:08;;;;;;;9.90;7.40;;;;;;;-0.49;100.00;95143.92;105262;1296;23820;-78
2022/11/18 05:02:39;;;;;;;11.30;7.70;;;;;;;-0.49;100.00;95139.34;105328;1303;23949;-78
2022/11/18 05:05:14;;;;;;;10.30;7.30;;;;;;;-0.50;100.00;95133.77;105200;1302;23001;-77
2022/11/18 05:07:45;;;;;;;12.80;7.90;;;;;;;-0.48;100.00;95131.91;105183;1281;22448;-78
2022/11/18 05:10:19;;;;;;;9.70;7.30;;;;;;;-0.48;100.00;95128.98;105202;1302;22519;-78
2022/11/18 05:12:51;;;;;;;9.50;7.30;;;;;;;-0.46;100.00;95126.41;105232;1303;23099;-78
2022/11/18 05:15:23;;;;;;;10.20;7.50;;;;;;;-0.46;100.00;95128.02;105241;1302;22469;-77
2022/11/18 05:17:55;;;;;;;9.80;7.10;;;;;;;-0.46;100.00;95127.50;105203;1292;22464;-77
2022/11/18 05:20:27;;;;;;;9.90;7.00;;;;;;;-0.45;100.00;95131.52;105210;1288;22458;-78
2022/11/18 05:22:58;;;;;;;10.00;7.70;;;;;;;-0.44;100.00;95137.77;105217;1297;23158;-78
2022/11/18 05:25:30;;;;;;;8.40;7.00;;;;;;;-0.43;100.00;95143.24;105219;1289;22481;-78
2022/11/18 05:28:01;;;;;;;8.70;6.80;;;;;;;-0.44;100.00;95151.05;105137;1291;24952;-78
2022/11/18 05:30:33;;;;;;;10.80;7.90;;;;;;;-0.44;100.00;95155.31;105202;1295;22504;-78
2022/11/18 05:33:04;;;;;;;9.30;7.50;;;;;;;-0.44;100.00;95160.58;105210;1271;22475;-78
2022/11/18 05:35:38;;;;;;;10.10;7.40;;;;;;;-0.48;100.00;95159.04;105173;1295;22469;-78
2022/11/18 05:38:09;;;;;;;8.80;7.00;;;;;;;-0.47;100.00;95158.27;105159;1278;25888;-78
2022/11/18 05:40:41;;;;;;;8.40;6.50;;;;;;;-0.48;100.00;95155.13;105235;1303;24252;-78
2022/11/18 05:43:13;;;;;;;10.50;8.30;;;;;;;-0.50;100.00;95155.06;105211;1303;25389;-78
2022/11/18 05:45:52;;;;;;;11.30;7.90;;;;;;;-0.51;100.00;95155.15;105215;1282;23388;-78
2022/11/18 05:48:23;;;;;;;10.30;8.20;;;;;;;-0.52;100.00;95159.41;105154;1279;25218;-78
2022/11/18 05:50:56;;;;;;;11.00;8.40;;;;;;;-0.52;100.00;95159.61;105215;1280;22468;-78
2022/11/18 05:53:27;;;;;;;12.20;9.10;;;;;;;-0.53;100.00;95159.45;105220;1291;25210;-77
2022/11/18 05:56:06;;;;;;;9.30;7.50;;;;;;;-0.53;100.00;95162.01;105155;1304;22724;-78
2022/11/18 05:58:38;;;;;;;11.60;8.40;;;;;;;-0.53;100.00;95164.98;105316;1297;32931;-78
2022/11/18 06:01:11;;;;;;;10.40;8.30;;;;;;;-0.52;100.00;95165.98;105185;1303;22485;-78
2022/11/18 06:03:48;;;;;;;10.80;8.50;;;;;;;-0.51;100.00;95166.87;105213;1303;22592;-78
2022/11/18 06:06:22;;;;;;;11.80;9.40;;;;;;;-0.52;100.00;95171.11;105145;1295;22451;-77
2022/11/18 06:08:57;;;;;;;11.60;9.30;;;;;;;-0.53;100.00;95173.19;105209;1287;25222;-78
2022/11/18 06:11:31;;;;;;;11.30;9.00;;;;;;;-0.57;100.00;95181.52;105217;1303;22548;-78
2022/11/18 06:14:10;;;;;;;11.90;9.50;;;;;;;-0.57;100.00;95177.20;105230;1291;22468;-78
2022/11/18 06:16:44;;;;;;;14.00;10.60;;;;;;;-0.57;100.00;95174.64;103440;1303;2454082;-78
2022/11/18 06:19:16;;;;;;;11.90;9.80;;;;;;;-0.56;100.00;95176.34;105271;1302;22462;-78
2022/11/18 06:21:49;;;;;;;13.80;10.90;;;;;;;-0.55;100.00;95174.33;105213;1303;22477;-78
2022/11/18 06:24:21;;;;;;;12.80;10.80;;;;;;;-0.54;100.00;95182.19;105198;1278;22473;-78
2022/11/18 06:26:53;;;;;;;13.00;10.80;;;;;;;-0.53;100.00;95191.41;105286;1302;23049;-77
2022/11/18 06:29:27;;;;;;;12.90;10.10;;;;;;;-0.53;100.00;95199.02;105306;1302;23844;-78
2022/11/18 06:31:58;;;;;;;13.40;10.50;;;;;;;-0.54;100.00;95209.48;105318;1301;22536;-78
2022/11/18 06:34:29;;;;;;;13.10;10.60;;;;;;;-0.55;100.00;95209.31;105314;1302;28061;-78
2022/11/18 06:37:11;;;;;;;12.20;9.20;;;;;;;-0.58;100.00;95202.33;105180;1295;22473;-78
2022/11/18 06:39:43;;;;;;;11.00;9.50;;;;;;;-0.60;100.00;95197.94;105187;1304;24250;-78
2022/11/18 06:45:13;;;;;;;13.50;10.90;;;;;;;-0.61;100.00;95208.48;105213;1298;24241;-78
2022/11/18 06:47:46;;;;;;;13.70;10.40;;;;;;;-0.62;100.00;95210.88;105220;1284;22478;-77
2022/11/18 06:50:18;;;;;;;12.10;9.70;;;;;;;-0.62;100.00;95208.17;105330;1302;23815;-78
2022/11/18 06:52:49;;;;;;;11.70;9.20;;;;;;;-0.62;100.00;95205.05;105366;1294;23675;-78
2022/11/18 06:55:23;;;;;;;12.80;10.10;;;;;;;-0.63;100.00;95202.48;105217;1281;25263;-78
2022/11/18 06:57:58;;;;;;;12.30;9.50;;;;;;;-0.63;100.00;95201.08;105150;1284;23836;-78
2022/11/18 07:00:29;;;;;;;13.40;10.80;;;;;;;-0.63;100.00;95199.83;105206;1304;22690;-78
2022/11/18 07:03:02;;;;;;;13.60;10.90;;;;;;;-0.64;100.00;95203.36;105189;1290;22490;-78
2022/11/18 07:05:35;;;;;;;12.30;10.40;;;;;;;-0.62;100.00;95204.37;105199;1281;22485;-78
2022/11/18 07:08:07;;;;;;;15.20;12.20;;;;;;;-0.60;100.00;95209.86;105121;1303;26433;-78
2022/11/18 07:10:38;;;;;;;18.10;12.40;;;;;;;-0.58;100.00;95207.17;105142;1306;23746;-78
2022/11/18 07:13:10;;;;;;;14.40;11.60;;;;;;;-0.57;100.00;95209.10;105193;1288;22465;-78
2022/11/18 07:15:41;;;;;;;16.70;12.90;;;;;;;-0.61;100.00;95209.12;105201;1285;24007;-78
2022/11/18 07:18:15;;;;;;;16.30;12.20;;;;;;;-0.62;100.00;95208.59;105166;1304;22538;-78
2022/11/18 07:20:46;;;;;;;17.40;12.70;;;;;;;-0.59;100.00;95209.71;105210;1282;23825;-78
2022/11/18 07:23:18;;;;;;;14.70;11.70;;;;;;;-0.55;100.00;95211.48;105204;1290;25035;-78
2022/11/18 07:25:54;;;;;;;15.90;12.60;;;;;;;-0.53;100.00;95207.14;105110;1301;22463;-78
2022/11/18 07:28:25;;;;;;;13.80;10.70;;;;;;;-0.51;100.00;95201.19;105044;1278;22548;-78
2022/11/18 07:31:03;;;;;;;14.20;11.40;;;;;;;-0.50;100.00;95198.90;105127;1304;23386;-78
2022/11/18 07:33:35;;;;;;;15.00;11.70;;;;;;;-0.49;100.00;95201.45;105260;1306;22510;-78
2022/11/18 07:36:10;;;;;;;15.90;12.00;;;;;;;-0.51;100.00;95202.58;105193;1304;22468;-78
2022/11/18 07:38:42;;;;;;;15.20;11.50;;;;;;;-0.50;100.00;95199.10;105201;1281;31638;-78
2022/11/18 07:41:18;;;;;;;13.10;10.60;;;;;;;-0.49;100.00;95197.49;105194;1304;23964;-78
2022/11/18 07:43:51;;;;;;;15.70;12.00;;;;;;;-0.51;100.00;95194.66;105224;1303;24023;-78
2022/11/18 07:46:25;;;;;;;14.50;11.20;;;;;;;-0.55;100.00;95194.56;105167;1298;25249;-78
2022/11/18 07:48:57;;;;;;;15.60;12.30;;;;;;;-0.61;100.00;95194.18;105193;1278;23752;-78
2022/11/18 07:51:32;;;;;;;16.40;12.90;;;;;;;-0.62;100.00;95181.00;105180;1284;24467;-78
2022/11/18 07:54:06;;;;;;;18.50;13.50;;;;;;;-0.61;100.00;95171.90;105214;1302;24254;-78
2022/11/18 07:56:37;;;;;;;15.00;12.30;;;;;;;-0.60;100.00;95185.71;105280;1288;22647;-78
2022/11/18 07:59:09;;;;;;;16.10;12.60;;;;;;;-0.61;100.00;95187.63;105230;1304;22541;-78
2022/11/18 08:01:40;;;;;;;16.20;12.50;;;;;;;-0.62;100.00;95187.94;105210;1290;24259;-78
2022/11/18 08:04:14;;;;;;;17.90;13.20;;;;;;;-0.59;100.00;95198.52;105195;1304;22600;-78
2022/11/18 08:06:47;;;;;;;17.50;12.90;;;;;;;-0.58;100.00;95198.58;105192;1289;22481;-78
2022/11/18 08:09:21;;;;;;;17.80;13.50;;;;;;;-0.57;100.00;95200.05;105256;1303;23932;-78
2022/11/18 08:11:53;;;;;;;18.30;14.30;;;;;;;-0.58;100.00;95205.97;105218;1288;25202;-78
2022/11/18 08:14:25;;;;;;;19.70;15.00;;;;;;;-0.58;100.00;95209.66;105199;1278;27083;-78
2022/11/18 08:16:57;;;;;;;20.30;14.60;;;;;;;-0.59;100.00;95204.40;105128;1295;22477;-78
2022/11/18 08:19:28;;;;;;;19.60;14.40;;;;;;;-0.59;100.00;95207.00;105185;1297;22945;-78
2022/11/18 08:22:00;;;;;;;20.70;14.80;;;;;;;-0.60;100.00;95206.31;105206;1298;25489;-78
2022/11/18 08:24:33;;;;;;;20.40;16.20;;;;;;;-0.59;100.00;95207.52;105167;1304;22638;-78
2022/11/18 08:27:04;;;;;;;21.70;15.40;;;;;;;-0.57;100.00;95202.39;105112;1287;22474;-78
2022/11/18 08:29:36;;;;;;;20.00;14.50;;;;;;;-0.54;100.00;95204.33;105177;1291;25415;-78
2022/11/18 08:32:08;;;;;;;21.20;15.00;;;;;;;-0.51;100.00;95200.08;105189;1287;25220;-78
2022/11/18 08:34:40;;;;;;;19.40;14.60;;;;;;;-0.49;100.00;95204.21;105172;1304;22467;-78
2022/11/18 08:37:11;;;;;;;20.70;15.00;;;;;;;-0.48;100.00;95217.23;105146;1288;22526;-78
2022/11/18 08:39:43;;;;;;;20.90;15.30;;;;;;;-0.45;100.00;95216.06;105135;1299;22548;-78
2022/11/18 08:42:15;;;;;;;17.80;12.50;;;;;;;-0.41;100.00;95212.96;105197;1296;22468;-78
2022/11/18 08:44:47;;;;;;;18.00;13.30;;;;;;;-0.38;100.00;95211.59;105196;1304;22471;-78
2022/11/18 08:47:20;;;;;;;18.50;13.00;;;;;;;-0.35;100.00;95213.79;105261;1303;22536;-77
2022/11/18 08:49:52;;;;;;;18.10;12.60;;;;;;;-0.35;100.00;95215.83;105329;1301;22455;-78
2022/11/18 08:52:24;;;;;;;17.70;12.60;;;;;;;-0.36;100.00;95214.94;105187;1299;24554;-78
2022/11/18 08:54:56;;;;;;;15.40;10.20;;;;;;;-0.39;100.00;95218.87;105323;1300;22505;-78
2022/11/18 08:57:28;;;;;;;15.90;11.20;;;;;;;-0.32;100.00;95230.28;105375;1298;24317;-78
2022/11/18 09:00:03;;;;;;;16.20;11.60;;;;;;;-0.32;100.00;95236.12;105193;1303;22474;-78
2022/11/18 09:02:34;;;;;;;17.00;11.90;;;;;;;-0.28;100.00;95246.52;105254;1292;24243;-78
2022/11/18 09:05:07;;;;;;;17.00;11.90;;;;;;;-0.27;100.00;95240.61;105304;1279;25394;-78
2022/11/18 09:07:39;;;;;;;17.30;12.30;;;;;;;-0.29;100.00;95239.94;105163;1303;26544;-78
2022/11/18 09:10:11;;;;;;;16.70;12.40;;;;;;;-0.26;100.00;95237.91;105189;1303;22541;-78
2022/11/18 09:12:43;;;;;;;15.60;11.80;;;;;;;-0.21;100.00;95237.12;105251;1303;23833;-78
2022/11/18 09:15:17;;;;;;;15.90;12.10;;;;;;;-0.17;100.00;95230.96;105231;1295;23782;-78
2022/11/18 09:17:50;;;;;;;17.50;12.70;;;;;;;-0.18;100.00;95231.41;105153;1303;23668;-78
2022/11/18 09:20:23;;;;;;;17.20;12.50;;;;;;;-0.11;100.00;95238.34;105232;1303;25336;-78
2022/11/18 09:22:54;;;;;;;17.00;11.80;;;;;;;-0.04;100.00;95242.83;105225;1303;22477;-78
2022/11/18 09:25:25;;;;;;;16.00;11.80;;;;;;;-0.04;100.00;95232.46;105234;1303;22534;-79
2022/11/18 09:27:58;;;;;;;14.80;10.80;;;;;;;-0.09;100.00;95221.33;105150;1295;22485;-78
2022/11/18 09:30:29;;;;;;;15.80;11.70;;;;;;;-0.11;100.00;95223.86;105182;1288;25277;-79
2022/11/18 09:33:01;;;;;;;15.60;11.20;;;;;;;-0.15;100.00;95231.46;105173;1303;25380;-79
2022/11/18 09:35:32;;;;;;;13.80;10.50;;;;;;;-0.16;100.00;95239.73;105204;1275;26440;-78
2022/11/18 09:38:04;;;;;;;13.70;11.00;;;;;;;-0.14;100.00;95242.98;105172;1303;22595;-78
2022/11/18 09:40:40;;;;;;;13.80;10.60;;;;;;;-0.16;100.00;95239.41;105214;1274;23987;-78
2022/11/18 09:43:20;;;;;;;15.90;11.10;;;;;;;-0.18;100.00;95243.66;105203;1284;22563;-78
2022/11/18 09:45:59;;;;;;;14.70;11.00;;;;;;;-0.23;100.00;95250.80;105233;1289;22555;-78
2022/11/18 09:51:16;;;;;;;13.80;10.70;;;;;;;-0.24;100.00;95250.64;105204;1297;22470;-78
2022/11/18 09:53:48;;;;;;;11.00;8.30;;;;;;;-0.27;100.00;95254.88;105206;1295;23999;-78
2022/11/18 09:56:21;;;;;;;10.50;7.70;;;;;;;-0.30;100.00;95253.58;105153;1275;23796;-77
2022/11/18 09:58:53;;;;;;;9.80;7.20;;;;;;;-0.31;100.00;95252.20;105220;1288;25323;-78
2022/11/18 10:01:28;;;;;;;10.90;7.40;;;;;;;-0.33;100.00;95248.50;105195;1304;24231;-78
2022/11/18 10:03:59;;;;;;;9.00;6.50;;;;;;;-0.32;100.00;95244.97;105182;1285;22461;-78
2022/11/18 10:06:34;;;;;;;10.50;7.90;;;;;;;-0.30;100.00;95250.40;105173;1278;22475;-78
2022/11/18 10:09:21;;;;;;;10.30;7.00;;;;;;;-0.29;100.00;95248.02;105202;1284;23830;-78
2022/11/18 10:12:09;;;;;;;10.70;7.70;;;;;;;-0.28;100.00;95256.77;105131;1305;22594;-77
2022/11/18 10:15:03;;;;;;;10.40;7.60;;;;;;;-0.24;100.00;95253.87;105240;1275;23770;-78
2022/11/18 10:17:46;;;;;;;9.10;7.10;;;;;;;-0.21;100.00;95249.00;105110;1297;24859;-78
2022/11/18 10:20:29;;;;;;;9.70;7.00;;;;;;;-0.22;100.00;95250.13;105214;1305;22477;-78
2022/11/18 10:23:09;;;;;;;9.90;7.60;;;;;;;-0.23;100.00;95249.98;105244;1301;22530;-78
2022/11/18 10:25:39;;;;;;;;;;;;;;;-0.20;100.00;95254.17;105204;1299;22465;-78
2022/11/18 10:28:22;;;;;;;10.30;6.80;;;;;;;-0.21;100.00;95258.73;105044;1296;22516;-77
2022/11/18 10:30:54;;;;;;;8.70;6.60;;;;;;;-0.24;100.00;95249.60;105173;1304;25874;-77
2022/11/18 10:33:29;;;;;;;9.80;6.60;;;;;;;-0.23;100.00;95246.90;105180;1296;22474;-77
2022/11/18 10:36:26;;;;;;;9.40;6.80;;;;;;;-0.25;100.00;95247.30;105154;1304;22496;-78
2022/11/18 10:39:14;;;;;;;9.10;6.70;;;;;;;-0.26;100.00;95243.44;105230;1299;22468;-78
2022/11/18 10:41:48;;;;;;;10.60;7.80;;;;;;;-0.26;100.00;95243.38;105147;1304;22492;-77
2022/11/18 10:44:45;;;;;;;10.40;8.10;;;;;;;-0.29;100.00;95239.02;105232;1288;22485;-77
2022/11/18 10:47:28;;;;;;;10.40;7.70;;;;;;;-0.32;100.00;95231.84;104921;1295;22480;-77
2022/11/18 10:50:02;;;;;;;9.50;6.80;;;;;;;-0.38;100.00;95228.83;105128;1291;24683;-77
2022/11/18 10:52:51;;;;;;;10.30;7.60;;;;;;;-0.41;100.00;95233.84;105193;1304;22959;-77
2022/11/18 10:55:25;;;;;;;9.10;7.10;;;;;;;-0.41;100.00;95236.29;105188;1304;22530;-77
2022/11/18 10:58:03;;;;;;;9.20;6.90;;;;;;;-0.44;100.00;95248.41;105162;1285;22576;-77
2022/11/18 11:00:52;;;;;;;8.90;6.50;;;;;;;-0.45;100.00;95248.23;105221;1303;23776;-77
2022/11/18 11:03:38;;;;;;;10.10;7.50;;;;;;;-0.49;100.00;95253.04;105266;1298;25348;-77
2022/11/18 11:06:30;;;;;;;9.00;7.60;;;;;;;-0.51;100.00;95252.14;105228;1295;22520;-77
2022/11/18 11:09:05;;;;;;;8.80;7.00;;;;;;;-0.49;100.00;95256.23;105225;1304;22474;-77
2022/11/18 11:11:42;;;;;;;9.20;7.20;;;;;;;-0.47;100.00;95254.16;105175;1303;25549;-77
2022/11/18 11:14:25;;;;;;;9.50;7.50;;;;;;;-0.49;100.00;95251.85;105161;1304;22458;-77
2022/11/18 11:17:02;;;;;;;10.20;7.50;;;;;;;-0.55;100.00;95251.15;105197;1303;25208;-77
2022/11/18 11:19:43;;;;;;;8.60;6.70;;;;;;;-0.62;100.00;95249.45;105262;1295;22535;-77
2022/11/18 11:22:16;;;;;;;10.20;7.70;;;;;;;-0.61;100.00;95252.32;105266;1303;22478;-77
2022/11/18 11:24:50;;;;;;;10.80;8.80;;;;;;;-0.67;100.00;95252.10;105238;1289;22498;-77
2022/11/18 11:27:50;;;;;;;11.00;8.40;;;;;;;-0.82;100.00;95250.28;105077;1304;23542;-77
2022/11/18 11:30:24;;;;;;;12.60;9.00;;;;;;;-0.83;100.00;95254.80;105176;1306;22607;-78
2022/11/18 11:33:26;;;;;;;12.20;9.00;;;;;;;-0.76;100.00;95259.15;105234;1304;22474;-77
2022/11/18 11:36:18;;;;;;;11.10;8.80;;;;;;;-0.73;100.00;95254.24;105201;1284;25462;-77
2022/11/18 11:39:01;;;;;;;12.00;9.60;;;;;;;-0.71;100.00;95261.04;105207;1290;26503;-78
2022/11/18 11:41:42;;;;;;;10.90;8.40;;;;;;;-0.70;100.00;95265.23;105219;1298;22512;-77
2022/11/18 11:44:30;;;;;;;9.50;8.10;;;;;;;-0.70;100.00;95259.75;105256;1305;25432;-77
2022/11/18 11:50:12;;;;;;;11.30;8.90;;;;;;;-0.71;100.00;95259.64;105217;1304;22750;-77
2022/11/18 11:52:59;;;;;;;10.10;8.00;;;;;;;-0.72;100.00;95248.21;105230;1294;22471;-77
2022/11/18 11:55:37;;;;;;;11.40;8.50;;;;;;;-0.71;100.00;95245.32;105181;1294;22577;-77
2022/11/18 11:58:28;;;;;;;11.20;8.20;;;;;;;-0.68;100.00;95247.92;105222;1303;22903;-77
2022/11/18 12:01:05;;;;;;;11.10;8.80;;;;;;;-0.67;100.00;95246.74;105237;1303;22482;-77
2022/11/18 12:03:52;;;;;;;10.60;8.50;;;;;;;-0.65;100.00;95244.37;105193;1294;22517;-77